createdAt,value
2023-04-24T00:02:14.053Z,5.82
2023-04-24T00:04:45.842Z,6.90
2023-04-24T00:07:15.322Z,5.45
2023-04-24T00:09:43.538Z,6.03
2023-04-24T00:12:13.023Z,5.93
2023-04-24T00:14:40.950Z,9.05
2023-04-24T00:17:08.888Z,10.77
2023-04-24T00:19:38.112Z,9.52
2023-04-24T00:22:06.265Z,5.68
2023-04-24T00:24:34.122Z,5.68
2023-04-24T00:27:02.080Z,6.07
2023-04-24T00:29:30.235Z,6.55
2023-04-24T00:31:58.539Z,6.82
2023-04-24T00:34:26.584Z,8.20
2023-04-24T00:36:56.028Z,4.38
2023-04-24T00:39:24.904Z,6.03
2023-04-24T00:41:53.597Z,6.57
2023-04-24T00:44:21.507Z,5.82
2023-04-24T00:46:52.909Z,7.20
2023-04-24T00:49:21.098Z,5.90
2023-04-24T00:51:50.266Z,6.10
2023-04-24T00:54:20.034Z,6.57
2023-04-24T00:56:48.620Z,6.18
2023-04-24T00:59:18.874Z,6.88
2023-04-24T01:01:48.032Z,7.05
2023-04-24T01:04:16.637Z,7.22
2023-04-24T01:06:46.460Z,10.80
2023-04-24T01:09:15.513Z,8.68
2023-04-24T01:11:44.937Z,7.88
2023-04-24T01:14:13.875Z,7.63
2023-04-24T01:16:42.941Z,8.18
2023-04-24T01:19:12.610Z,6.30
2023-04-24T01:21:41.533Z,7.97
2023-04-24T01:24:10.913Z,6.53
2023-04-24T01:26:39.930Z,5.90
2023-04-24T01:29:08.096Z,6.60
2023-04-24T01:31:37.028Z,8.15
2023-04-24T01:34:05.466Z,5.55
2023-04-24T01:36:36.078Z,8.70
2023-04-24T01:39:04.411Z,6.50
2023-04-24T01:41:34.299Z,6.25
2023-04-24T01:44:02.425Z,6.68
2023-04-24T01:46:31.723Z,6.18
2023-04-24T01:49:01.713Z,6.60
2023-04-24T01:51:30.054Z,5.03
2023-04-24T01:53:58.504Z,9.82
2023-04-24T01:56:27.654Z,5.47
2023-04-24T01:58:58.271Z,6.32
2023-04-24T02:01:26.725Z,6.63
2023-04-24T02:03:54.727Z,6.03
2023-04-24T02:06:23.249Z,9.90
2023-04-24T02:08:51.078Z,7.13
2023-04-24T02:11:19.670Z,6.65
2023-04-24T02:13:47.746Z,6.60
2023-04-24T02:16:17.035Z,7.32
2023-04-24T02:18:44.969Z,6.53
2023-04-24T02:21:13.067Z,7.63
2023-04-24T02:23:41.150Z,6.65
2023-04-24T02:26:09.186Z,7.10
2023-04-24T02:28:37.052Z,8.82
2023-04-24T02:31:04.894Z,6.22
2023-04-24T02:33:34.158Z,7.50
2023-04-24T02:36:02.198Z,7.43
2023-04-24T02:38:30.129Z,10.88
2023-04-24T02:40:58.077Z,6.70
2023-04-24T02:43:27.914Z,8.48
2023-04-24T02:45:56.141Z,5.88
2023-04-24T02:48:24.623Z,7.60
2023-04-24T02:50:54.388Z,6.80
2023-04-24T02:53:22.462Z,10.90
2023-04-24T02:55:50.489Z,6.15
2023-04-24T02:58:18.425Z,7.13
2023-04-24T03:00:46.441Z,7.22
2023-04-24T03:03:14.521Z,9.10
2023-04-24T03:05:42.499Z,6.93
2023-04-24T03:08:12.440Z,6.80
2023-04-24T03:10:40.320Z,6.85
2023-04-24T03:13:09.614Z,7.65
2023-04-24T03:15:37.559Z,8.38
2023-04-24T03:18:05.523Z,9.35
2023-04-24T03:20:34.205Z,5.85
2023-04-24T03:23:02.127Z,6.75
2023-04-24T03:25:31.567Z,6.78
2023-04-24T03:27:59.618Z,6.60
2023-04-24T03:30:35.841Z,8.02
2023-04-24T03:33:04.637Z,7.22
2023-04-24T03:35:37.252Z,9.98
2023-04-24T03:41:01.911Z,8.25
2023-04-24T03:43:50.715Z,8.13
2023-04-24T03:46:18.778Z,7.75
2023-04-24T03:48:53.427Z,7.72
2023-04-24T03:51:24.519Z,7.57
2023-04-24T03:53:56.312Z,7.18
2023-04-24T03:56:27.987Z,7.30
2023-04-24T03:58:56.332Z,7.05
2023-04-24T04:01:25.147Z,7.60
2023-04-24T04:04:25.604Z,7.75
2023-04-24T04:06:54.321Z,8.40
2023-04-24T04:09:22.648Z,8.77
2023-04-24T04:11:52.022Z,7.78
2023-04-24T04:14:19.919Z,6.18
2023-04-24T04:16:49.686Z,6.35
2023-04-24T04:19:17.820Z,9.68
2023-04-24T04:21:46.691Z,8.13
2023-04-24T04:24:27.834Z,7.68
2023-04-24T04:26:57.737Z,6.78
2023-04-24T04:29:37.309Z,8.05
2023-04-24T04:32:09.496Z,6.95
2023-04-24T04:34:38.642Z,10.15
2023-04-24T04:37:07.730Z,6.13
2023-04-24T04:40:07.950Z,6.68
2023-04-24T04:42:46.922Z,7.38
2023-04-24T04:45:18.001Z,7.93
2023-04-24T04:48:07.036Z,8.85
2023-04-24T04:50:34.960Z,6.75
2023-04-24T04:53:07.955Z,5.80
2023-04-24T04:55:39.823Z,11.27
2023-04-24T04:58:17.937Z,5.85
2023-04-24T05:00:47.524Z,8.65
2023-04-24T05:03:22.757Z,7.07
2023-04-24T05:06:10.990Z,5.28
2023-04-24T05:08:42.159Z,6.90
2023-04-24T05:11:14.490Z,5.47
2023-04-24T05:13:44.588Z,5.13
2023-04-24T05:16:20.551Z,6.72
2023-04-24T05:18:50.318Z,9.30
2023-04-24T05:21:21.998Z,4.57
2023-04-24T05:23:52.842Z,3.65
2023-04-24T05:26:34.983Z,5.15
2023-04-24T05:29:04.284Z,5.13
2023-04-24T05:31:32.929Z,6.85
2023-04-24T05:34:01.012Z,4.78
2023-04-24T05:36:29.283Z,8.00
2023-04-24T05:38:57.598Z,4.88
2023-04-24T05:41:26.085Z,3.63
2023-04-24T05:43:53.993Z,4.32
2023-04-24T05:46:24.169Z,6.97
2023-04-24T05:48:52.075Z,7.20
2023-04-24T05:51:20.367Z,7.82
2023-04-24T05:53:48.612Z,3.72
2023-04-24T05:56:17.803Z,4.25
2023-04-24T05:58:46.111Z,2.55
2023-04-24T06:01:15.157Z,4.90
2023-04-24T06:03:45.908Z,2.58
2023-04-24T06:06:14.225Z,4.65
2023-04-24T06:08:43.693Z,2.45
2023-04-24T06:11:12.026Z,4.18
2023-04-24T06:13:40.791Z,2.78
2023-04-24T06:16:27.179Z,3.42
2023-04-24T06:19:03.713Z,2.75
2023-04-24T06:21:32.578Z,3.70
2023-04-24T06:24:00.873Z,3.33
2023-04-24T06:26:28.870Z,6.13
2023-04-24T06:28:56.832Z,5.68
2023-04-24T06:31:24.668Z,2.15
2023-04-24T06:33:52.683Z,2.60
2023-04-24T06:36:21.973Z,1.75
2023-04-24T06:38:49.870Z,3.63
2023-04-24T06:41:17.737Z,3.35
2023-04-24T06:43:45.942Z,2.35
2023-04-24T06:46:13.989Z,2.10
2023-04-24T06:48:41.979Z,4.38
2023-04-24T06:51:10.128Z,2.33
2023-04-24T06:53:39.440Z,1.80
2023-04-24T06:56:07.480Z,3.42
2023-04-24T06:58:35.332Z,3.20
2023-04-24T07:01:03.218Z,7.20
2023-04-24T07:03:31.721Z,2.03
2023-04-24T07:05:59.931Z,2.58
2023-04-24T07:08:27.807Z,3.80
2023-04-24T07:10:57.107Z,1.60
2023-04-24T07:13:25.275Z,1.30
2023-04-24T07:15:55.009Z,1.23
2023-04-24T07:18:23.589Z,2.33
2023-04-24T07:20:52.065Z,1.85
2023-04-24T07:23:20.085Z,1.52
2023-04-24T07:25:47.937Z,1.40
2023-04-24T07:28:18.854Z,0.95
2023-04-24T07:30:46.828Z,2.95
2023-04-24T07:33:14.899Z,2.00
2023-04-24T07:35:42.894Z,1.80
2023-04-24T07:38:10.749Z,2.13
2023-04-24T07:40:38.688Z,0.82
2023-04-24T07:43:06.676Z,1.85
2023-04-24T07:45:38.217Z,1.83
2023-04-24T07:48:06.354Z,0.85
2023-04-24T07:50:34.463Z,1.38
2023-04-24T07:53:02.297Z,0.70
2023-04-24T07:55:30.234Z,2.22
2023-04-24T07:57:58.144Z,3.97
2023-04-24T08:00:26.108Z,9.38
2023-04-24T08:02:55.537Z,0.98
2023-04-24T08:05:23.631Z,1.50
2023-04-24T08:07:51.716Z,1.00
2023-04-24T08:10:19.920Z,2.10
2023-04-24T08:12:47.956Z,5.15
2023-04-24T08:15:15.875Z,1.42
2023-04-24T08:17:43.913Z,0.80
2023-04-24T08:20:15.408Z,0.55
2023-04-24T08:22:43.610Z,1.23
2023-04-24T08:25:12.424Z,3.05
2023-04-24T08:27:40.817Z,0.60
2023-04-24T08:30:09.934Z,0.90
2023-04-24T08:32:38.428Z,1.30
2023-04-24T08:35:07.008Z,2.42
2023-04-24T08:37:36.713Z,0.50
2023-04-24T08:40:08.768Z,2.58
2023-04-24T08:42:39.118Z,1.73
2023-04-24T08:45:08.216Z,3.58
2023-04-24T08:47:37.941Z,0.82
2023-04-24T08:50:08.186Z,1.25
2023-04-24T08:52:37.918Z,0.75
2023-04-24T08:55:07.593Z,0.65
2023-04-24T08:57:36.930Z,2.35
2023-04-24T09:00:05.715Z,0.85
2023-04-24T09:02:36.098Z,0.65
2023-04-24T09:05:04.847Z,3.10
2023-04-24T09:07:37.679Z,1.92
2023-04-24T09:10:09.558Z,2.13
2023-04-24T09:12:37.873Z,2.08
2023-04-24T09:15:06.765Z,0.85
2023-04-24T09:17:36.539Z,2.65
2023-04-24T09:20:05.240Z,0.73
2023-04-24T09:22:33.298Z,0.60
2023-04-24T09:25:06.739Z,2.00
2023-04-24T09:27:36.341Z,0.70
2023-04-24T09:30:05.518Z,1.65
2023-04-24T09:32:33.812Z,0.63
2023-04-24T09:35:10.160Z,1.90
2023-04-24T09:37:39.636Z,1.38
2023-04-24T09:40:13.304Z,2.22
2023-04-24T09:42:46.126Z,3.08
2023-04-24T09:45:15.452Z,1.40
2023-04-24T09:47:44.861Z,0.65
2023-04-24T09:50:17.682Z,1.63
2023-04-24T09:52:58.951Z,1.80
2023-04-24T09:55:27.768Z,0.65
2023-04-24T09:57:59.426Z,5.35
2023-04-24T10:00:29.138Z,1.48
2023-04-24T10:02:58.519Z,1.73
2023-04-24T10:05:28.970Z,1.42
2023-04-24T10:08:03.818Z,3.38
2023-04-24T10:10:32.837Z,1.60
2023-04-24T10:13:03.627Z,1.98
2023-04-24T10:15:32.092Z,1.35
2023-04-24T10:18:01.196Z,3.00
2023-04-24T10:20:31.621Z,3.28
2023-04-24T10:23:00.534Z,2.90
2023-04-24T10:25:30.773Z,5.45
2023-04-24T10:28:00.693Z,1.67
2023-04-24T10:30:33.512Z,5.32
2023-04-24T10:33:01.856Z,3.72
2023-04-24T10:35:33.353Z,1.40
2023-04-24T10:38:05.946Z,2.40
2023-04-24T10:40:35.659Z,1.88
2023-04-24T10:43:07.330Z,2.55
2023-04-24T10:45:36.916Z,3.10
2023-04-24T10:48:11.611Z,2.20
2023-04-24T10:50:47.467Z,2.05
2023-04-24T10:53:18.467Z,2.42
2023-04-24T10:55:48.896Z,7.93
2023-04-24T10:58:17.817Z,4.38
2023-04-24T11:00:58.549Z,2.17
2023-04-24T11:03:28.888Z,2.17
2023-04-24T11:06:04.563Z,1.92
2023-04-24T11:08:34.985Z,1.92
2023-04-24T11:11:06.412Z,1.33
2023-04-24T11:14:09.479Z,0.95
2023-04-24T11:16:54.284Z,0.73
2023-04-24T11:19:26.716Z,2.10
2023-04-24T11:22:00.667Z,1.30
2023-04-24T11:24:31.748Z,3.35
2023-04-24T11:27:02.650Z,3.35
2023-04-24T11:29:41.254Z,1.20
2023-04-24T11:32:25.533Z,1.98
2023-04-24T11:34:54.754Z,1.08
2023-04-24T11:37:23.566Z,2.72
2023-04-24T11:39:54.101Z,1.52
2023-04-24T11:42:23.851Z,4.07
2023-04-24T11:44:52.283Z,3.10
2023-04-24T11:47:21.926Z,1.30
2023-04-24T11:49:52.705Z,1.15
2023-04-24T11:52:21.638Z,1.08
2023-04-24T11:54:51.582Z,4.80
2023-04-24T11:57:22.902Z,3.08
2023-04-24T11:59:51.423Z,1.50
2023-04-24T12:02:24.824Z,2.53
2023-04-24T12:04:55.013Z,2.42
2023-04-24T12:07:25.848Z,1.77
2023-04-24T12:09:59.075Z,3.08
2023-04-24T12:12:29.178Z,2.17
2023-04-24T12:14:58.973Z,0.75
2023-04-24T12:17:31.282Z,1.02
2023-04-24T12:20:01.623Z,4.63
2023-04-24T12:22:29.573Z,1.67
2023-04-24T12:25:02.663Z,1.48
2023-04-24T12:27:34.513Z,1.20
2023-04-24T12:30:05.482Z,2.10
2023-04-24T12:32:34.747Z,2.10
2023-04-24T12:35:07.110Z,1.30
2023-04-24T12:37:37.415Z,1.60
2023-04-24T12:40:08.802Z,2.53
2023-04-24T12:42:37.789Z,5.13
2023-04-24T12:45:07.752Z,1.10
2023-04-24T12:47:37.890Z,0.77
2023-04-24T12:50:07.079Z,1.27
2023-04-24T12:52:35.258Z,0.73
2023-04-24T12:55:03.838Z,1.10
2023-04-24T12:57:32.832Z,2.05
2023-04-24T13:00:01.090Z,3.63
2023-04-24T13:02:31.453Z,1.52
2023-04-24T13:05:01.373Z,1.02
2023-04-24T13:07:29.994Z,2.03
2023-04-24T13:09:58.828Z,1.25
2023-04-24T13:12:27.476Z,2.60
2023-04-24T13:14:56.759Z,1.70
2023-04-24T13:17:24.731Z,0.77
2023-04-24T13:19:54.274Z,2.63
2023-04-24T13:22:23.629Z,3.55
2023-04-24T13:24:51.700Z,0.70
2023-04-24T13:27:20.408Z,1.30
2023-04-24T13:29:48.389Z,2.78
2023-04-24T13:32:16.496Z,0.70
2023-04-24T13:34:44.851Z,0.98
2023-04-24T13:37:12.801Z,1.00
2023-04-24T13:39:42.894Z,1.65
2023-04-24T13:42:11.109Z,1.52
2023-04-24T13:44:39.316Z,0.80
2023-04-24T13:47:07.313Z,1.08
2023-04-24T13:49:35.240Z,5.75
2023-04-24T13:52:04.196Z,1.30
2023-04-24T13:54:32.045Z,1.98
2023-04-24T13:57:02.093Z,3.67
2023-04-24T13:59:30.073Z,2.47
2023-04-24T14:01:58.123Z,1.65
2023-04-24T14:04:26.723Z,1.60
2023-04-24T14:06:55.206Z,1.25
2023-04-24T14:09:23.125Z,1.23
2023-04-24T14:11:51.134Z,1.30
2023-04-24T14:14:20.598Z,2.30
2023-04-24T14:16:48.605Z,1.48
2023-04-24T14:19:16.609Z,2.38
2023-04-24T14:21:44.630Z,11.50
2023-04-24T14:24:12.597Z,3.33
2023-04-24T14:26:40.444Z,5.75
2023-04-24T14:29:14.915Z,2.83
2023-04-24T14:31:44.953Z,1.50
2023-04-24T14:34:13.448Z,4.78
2023-04-24T14:36:41.585Z,3.25
2023-04-24T14:39:09.546Z,0.80
2023-04-24T14:41:38.285Z,1.00
2023-04-24T14:44:06.712Z,3.08
2023-04-24T14:46:34.808Z,2.40
2023-04-24T14:49:04.197Z,2.05
2023-04-24T14:51:32.663Z,1.10
2023-04-24T14:54:00.782Z,2.10
2023-04-24T14:56:29.260Z,4.05
2023-04-24T14:58:57.625Z,3.28
2023-04-24T15:01:26.261Z,2.15
2023-04-24T15:03:54.790Z,2.10
2023-04-24T15:06:24.563Z,4.88
2023-04-24T15:08:52.416Z,1.77
2023-04-24T15:11:20.913Z,2.35
2023-04-24T15:13:49.087Z,1.73
2023-04-24T15:16:17.276Z,3.03
2023-04-24T15:18:45.583Z,3.25
2023-04-24T15:21:14.180Z,4.63
2023-04-24T15:23:43.643Z,4.13
2023-04-24T15:26:11.862Z,3.30
2023-04-24T15:28:39.759Z,2.10
2023-04-24T15:31:07.673Z,0.95
2023-04-24T15:33:35.542Z,3.70
2023-04-24T15:36:03.535Z,2.13
2023-04-24T15:38:31.465Z,2.38
2023-04-24T15:41:00.743Z,1.83
2023-04-24T15:43:30.824Z,3.97
2023-04-24T15:45:59.074Z,1.83
2023-04-24T15:48:27.263Z,3.40
2023-04-24T15:50:55.482Z,1.73
2023-04-24T15:53:23.847Z,0.80
2023-04-24T15:55:52.790Z,1.17
2023-04-24T15:58:22.522Z,2.80
2023-04-24T16:00:51.018Z,3.20
2023-04-24T16:03:19.200Z,2.22
2023-04-24T16:05:47.304Z,6.97
2023-04-24T16:08:15.508Z,3.42
2023-04-24T16:10:44.244Z,1.30
2023-04-24T16:13:12.266Z,1.27
2023-04-24T16:15:42.149Z,1.10
2023-04-24T16:18:10.237Z,1.40
2023-04-24T16:20:38.351Z,1.00
2023-04-24T16:23:06.286Z,1.02
2023-04-24T16:25:34.273Z,1.65
2023-04-24T16:28:02.325Z,2.78
2023-04-24T16:30:30.505Z,4.55
2023-04-24T16:32:59.899Z,3.85
2023-04-24T16:35:27.890Z,1.75
2023-04-24T16:37:55.817Z,2.17
2023-04-24T16:40:23.762Z,0.80
2023-04-24T16:42:52.794Z,1.30
2023-04-24T16:45:20.794Z,5.80
2023-04-24T16:47:48.870Z,1.75
2023-04-24T16:50:18.271Z,1.65
2023-04-24T16:52:46.227Z,3.30
2023-04-24T16:55:14.204Z,1.17
2023-04-24T16:57:42.112Z,1.35
2023-04-24T17:00:11.172Z,1.63
2023-04-24T17:02:39.191Z,1.52
2023-04-24T17:05:08.023Z,2.97
2023-04-24T17:07:37.350Z,1.83
2023-04-24T17:10:06.096Z,3.85
2023-04-24T17:12:34.079Z,1.10
2023-04-24T17:15:01.953Z,1.15
2023-04-24T17:17:29.941Z,1.83
2023-04-24T17:19:59.813Z,2.45
2023-04-24T17:22:29.315Z,1.10
2023-04-24T17:24:58.697Z,1.40
2023-04-24T17:27:26.581Z,3.85
2023-04-24T17:29:54.495Z,1.45
2023-04-24T17:32:22.590Z,0.98
2023-04-24T17:34:50.581Z,1.70
2023-04-24T17:37:20.239Z,3.53
2023-04-24T17:39:48.092Z,2.83
2023-04-24T17:42:17.534Z,4.03
2023-04-24T17:44:45.557Z,1.67
2023-04-24T17:47:13.614Z,2.40
2023-04-24T17:49:41.474Z,1.85
2023-04-24T17:52:09.468Z,3.25
2023-04-24T17:54:37.461Z,1.60
2023-04-24T17:57:05.411Z,2.42
2023-04-24T17:59:34.706Z,1.33
2023-04-24T18:02:02.695Z,1.60
2023-04-24T18:04:30.883Z,3.60
2023-04-24T18:06:58.828Z,2.58
2023-04-24T18:09:26.816Z,0.95
2023-04-24T18:11:54.733Z,2.47
2023-04-24T18:14:23.254Z,1.80
2023-04-24T18:16:52.466Z,1.65
2023-04-24T18:19:20.396Z,0.82
2023-04-24T18:21:48.285Z,1.98
2023-04-24T18:24:16.205Z,3.58
2023-04-24T18:26:44.108Z,1.52
2023-04-24T18:29:11.962Z,1.73
2023-04-24T18:31:39.973Z,0.90
2023-04-24T18:34:09.388Z,2.25
2023-04-24T18:36:37.233Z,1.02
2023-04-24T18:39:05.242Z,1.80
2023-04-24T18:41:34.911Z,0.60
2023-04-24T18:44:02.777Z,1.95
2023-04-24T18:46:31.366Z,0.82
2023-04-24T18:48:59.233Z,0.98
2023-04-24T18:51:28.659Z,1.73
2023-04-24T18:53:56.481Z,0.60
2023-04-24T18:56:24.497Z,2.72
2023-04-24T18:58:54.652Z,0.55
2023-04-24T19:01:23.305Z,0.60
2023-04-24T19:03:51.560Z,1.02
2023-04-24T19:06:19.687Z,2.28
2023-04-24T19:08:49.141Z,1.90
2023-04-24T19:11:17.473Z,0.70
2023-04-24T19:13:45.461Z,0.57
2023-04-24T19:16:13.455Z,0.57
2023-04-24T19:18:41.357Z,0.85
2023-04-24T19:21:09.296Z,2.15
2023-04-24T19:23:39.700Z,0.60
2023-04-24T19:26:09.109Z,1.38
2023-04-24T19:28:39.006Z,2.72
2023-04-24T19:31:07.200Z,4.75
2023-04-24T19:33:35.065Z,0.63
2023-04-24T19:36:06.105Z,1.05
2023-04-24T19:38:34.157Z,2.45
2023-04-24T19:41:02.062Z,4.30
2023-04-24T19:43:31.334Z,2.50
2023-04-24T19:45:59.313Z,1.85
2023-04-24T19:48:30.945Z,1.58
2023-04-24T19:50:58.914Z,2.65
2023-04-24T19:53:26.761Z,0.80
2023-04-24T19:55:55.541Z,1.60
2023-04-24T19:58:23.633Z,1.70
2023-04-24T20:00:52.848Z,2.08
2023-04-24T20:03:32.241Z,1.55
2023-04-24T20:06:01.149Z,2.22
2023-04-24T20:08:29.081Z,2.15
2023-04-24T20:10:58.107Z,1.60
2023-04-24T20:13:27.580Z,3.40
2023-04-24T20:15:56.883Z,3.10
2023-04-24T20:18:24.804Z,3.30
2023-04-24T20:20:56.874Z,5.72
2023-04-24T20:23:24.827Z,5.28
2023-04-24T20:25:57.820Z,2.53
2023-04-24T20:28:26.657Z,3.42
2023-04-24T20:30:56.072Z,4.03
2023-04-24T20:33:25.788Z,3.50
2023-04-24T20:35:53.663Z,12.45
2023-04-24T20:38:22.530Z,1.98
2023-04-24T20:40:57.619Z,2.65
2023-04-24T20:43:28.677Z,3.33
2023-04-24T20:45:58.758Z,2.28
2023-04-24T20:48:26.871Z,2.50
2023-04-24T20:50:54.889Z,3.47
2023-04-24T20:53:22.767Z,2.05
2023-04-24T20:55:50.629Z,3.28
2023-04-24T20:58:20.768Z,4.22
2023-04-24T21:00:48.825Z,4.00
2023-04-24T21:03:18.224Z,4.32
2023-04-24T21:05:46.208Z,3.00
2023-04-24T21:08:14.418Z,4.93
2023-04-24T21:10:42.403Z,2.75
2023-04-24T21:13:10.304Z,2.90
2023-04-24T21:15:38.243Z,3.85
2023-04-24T21:18:06.381Z,3.83
2023-04-24T21:20:35.612Z,3.58
2023-04-24T21:23:03.493Z,4.57
2023-04-24T21:25:31.644Z,5.45
2023-04-24T21:28:00.338Z,5.03
2023-04-24T21:30:28.346Z,5.15
2023-04-24T21:32:56.906Z,5.15
2023-04-24T21:35:24.845Z,5.03
2023-04-24T21:37:54.072Z,5.03
2023-04-24T21:40:21.885Z,3.20
2023-04-24T21:42:51.791Z,6.90
2023-04-24T21:45:19.865Z,6.00
2023-04-24T21:47:47.799Z,3.92
2023-04-24T21:50:15.647Z,8.60
2023-04-24T21:52:43.529Z,5.47
2023-04-24T21:55:12.721Z,4.68
2023-04-24T21:57:40.802Z,6.47
2023-04-24T22:00:11.334Z,6.45
2023-04-24T22:02:40.062Z,5.22
2023-04-24T22:05:09.781Z,4.68
2023-04-24T22:07:37.641Z,3.83
2023-04-24T22:10:06.493Z,5.57
2023-04-24T22:12:35.903Z,5.35
2023-04-24T22:15:04.269Z,9.32
2023-04-24T22:17:33.548Z,3.67
2023-04-24T22:20:01.512Z,3.95
2023-04-24T22:22:29.667Z,3.97
2023-04-24T22:24:57.530Z,4.80
2023-04-24T22:27:25.465Z,5.50
2023-04-24T22:29:54.651Z,4.72
2023-04-24T22:32:22.712Z,5.07
2023-04-24T22:34:50.601Z,4.28
2023-04-24T22:37:18.415Z,4.47
2023-04-24T22:39:46.243Z,8.15
2023-04-24T22:42:14.158Z,3.75
2023-04-24T22:44:42.035Z,8.02
2023-04-24T22:47:11.263Z,7.22
2023-04-24T22:49:39.823Z,8.23
2023-04-24T22:52:08.184Z,5.03
2023-04-24T22:54:36.127Z,6.07
2023-04-24T22:57:04.516Z,4.70
2023-04-24T22:59:32.424Z,6.05
2023-04-24T23:02:00.923Z,4.57
2023-04-24T23:04:30.247Z,5.85
2023-04-24T23:06:58.113Z,4.95
2023-04-24T23:09:26.061Z,4.57
2023-04-24T23:11:53.929Z,4.30
2023-04-24T23:14:21.856Z,6.05
2023-04-24T23:16:49.764Z,5.75
2023-04-24T23:19:17.742Z,4.63
2023-04-24T23:21:47.023Z,2.97
2023-04-24T23:24:15.157Z,3.95
2023-04-24T23:26:42.977Z,5.18
2023-04-24T23:29:10.837Z,2.60
2023-04-24T23:31:38.721Z,5.00
2023-04-24T23:34:06.589Z,4.90
2023-04-24T23:36:34.509Z,4.38
2023-04-24T23:39:05.266Z,4.80
2023-04-24T23:41:33.158Z,4.30
2023-04-24T23:44:00.983Z,7.90
2023-04-24T23:46:28.875Z,7.95
2023-04-24T23:48:56.759Z,6.45
2023-04-24T23:51:24.812Z,5.72
2023-04-24T23:53:53.354Z,4.68
2023-04-24T23:56:24.337Z,6.65
2023-04-24T23:58:52.330Z,9.77
